OIAM  Mahshahr  Airport

Iran

Add Bookmark
ICAO OIAM
IATA MRX
Type Airport
Status Operational
Latitude
30° 33' 22" N
30.556200
Longitude
49° 9' 6" E
49.151901
Local (GMT +4.5 ) UTC
May 5, 2016 05:33 am May 5, 2016 01:03
Sunrise-Sunset Local UTC
Begin Civil Twilight 05:58 am 01:28
Sunrise 06:24 am 01:54
Sunset 07:55 pm 15:25
End Civil Twilight 08:21 pm 15:51
VFR
VFR
MVFR
MVFR
IFR
IFR
LIFR
LIFR
Unknown
Unavailable

Current Weather

METAR Observed VFR
OIAM 050000Z 00000KT CAVOK 29/15 Q1004 Thu, May 5, 2016 @ 00:00 UTC
(1 Hour, 3 Minutes ago)
Visual Flight Rules
Wind Visibility Conditions
Calm 10 km or more
  • No significant weather
Temperatures Readings Precipitation
Current Temp
29°C
84°F
Dewpoint
15°C
59°F
Heat Index
29°C
84°
Humidity 43%
Altimeter 29.65" Hg
Sea Level Pressure 1,004 mb
Field Elevation
4 m
13 ft
None Recorded

Additional weather within a 92.6km radius of OIAM

Map ICAO Location
OIAG 54.4km E/NE (067°)
VFR
VFR
MVFR
MVFR
IFR
IFR
LIFR
LIFR
Unknown
Unavailable
-
-

CheckWX.com is intended as a tool to help pilots better visualize weather data. It is not intended as a substitute for an official weather briefing obtained from a Flight Service Station. CheckWX.com does not meet the FAA requirements for an official pre-flight weather briefing. Therefore, it's important that pilots still call and obtain an official FSS pre-flight weather briefing.

© 2007-2016 CheckWX.com
01:03:43 UTC